sensor_id;sensor_type;location;lat;lon;timestamp;P1;durP1;ratioP1;P2;durP2;ratioP2
6523;SDS011;3295;38.928;-77.052;2023-07-13T00:01:06;7.57;;;5.20;;
6523;SDS011;3295;38.928;-77.052;2023-07-13T00:03:33;10.48;;;5.93;;
6523;SDS011;3295;38.928;-77.052;2023-07-13T00:06:00;8.77;;;5.57;;
6523;SDS011;3295;38.928;-77.052;2023-07-13T00:08:30;8.77;;;5.50;;
6523;SDS011;3295;38.928;-77.052;2023-07-13T00:10:58;8.35;;;5.57;;
6523;SDS011;3295;38.928;-77.052;2023-07-13T00:13:25;7.95;;;5.30;;
6523;SDS011;3295;38.928;-77.052;2023-07-13T00:15:53;9.02;;;5.85;;
6523;SDS011;3295;38.928;-77.052;2023-07-13T00:18:21;8.88;;;5.63;;
6523;SDS011;3295;38.928;-77.052;2023-07-13T00:20:48;9.55;;;5.90;;
6523;SDS011;3295;38.928;-77.052;2023-07-13T00:23:15;8.25;;;5.32;;
6523;SDS011;3295;38.928;-77.052;2023-07-13T00:25:44;8.27;;;5.55;;
6523;SDS011;3295;38.928;-77.052;2023-07-13T00:28:11;8.13;;;5.38;;
6523;SDS011;3295;38.928;-77.052;2023-07-13T00:30:39;8.30;;;5.47;;
6523;SDS011;3295;38.928;-77.052;2023-07-13T00:33:07;9.68;;;5.63;;
6523;SDS011;3295;38.928;-77.052;2023-07-13T00:35:35;9.13;;;5.60;;
6523;SDS011;3295;38.928;-77.052;2023-07-13T00:38:03;8.35;;;5.55;;
6523;SDS011;3295;38.928;-77.052;2023-07-13T00:40:30;7.00;;;4.93;;
6523;SDS011;3295;38.928;-77.052;2023-07-13T00:42:58;8.38;;;5.53;;
6523;SDS011;3295;38.928;-77.052;2023-07-13T00:48:12;11.68;;;6.10;;
6523;SDS011;3295;38.928;-77.052;2023-07-13T00:50:41;8.73;;;5.82;;
6523;SDS011;3295;38.928;-77.052;2023-07-13T00:53:09;7.65;;;5.00;;
6523;SDS011;3295;38.928;-77.052;2023-07-13T00:55:37;7.93;;;5.40;;
6523;SDS011;3295;38.928;-77.052;2023-07-13T00:58:04;8.65;;;5.82;;
6523;SDS011;3295;38.928;-77.052;2023-07-13T01:00:32;8.20;;;5.28;;
6523;SDS011;3295;38.928;-77.052;2023-07-13T01:02:59;9.88;;;5.78;;
6523;SDS011;3295;38.928;-77.052;2023-07-13T01:05:32;10.32;;;5.88;;
6523;SDS011;3295;38.928;-77.052;2023-07-13T01:07:59;8.90;;;5.97;;
6523;SDS011;3295;38.928;-77.052;2023-07-13T01:10:27;7.78;;;5.55;;
6523;SDS011;3295;38.928;-77.052;2023-07-13T01:12:54;9.18;;;5.32;;
6523;SDS011;3295;38.928;-77.052;2023-07-13T01:15:34;8.57;;;5.07;;
6523;SDS011;3295;38.928;-77.052;2023-07-13T01:18:02;8.70;;;5.60;;
6523;SDS011;3295;38.928;-77.052;2023-07-13T01:20:31;9.10;;;5.63;;
6523;SDS011;3295;38.928;-77.052;2023-07-13T01:23:04;7.30;;;5.22;;
6523;SDS011;3295;38.928;-77.052;2023-07-13T01:25:33;12.88;;;5.38;;
6523;SDS011;3295;38.928;-77.052;2023-07-13T01:28:01;8.90;;;5.57;;
6523;SDS011;3295;38.928;-77.052;2023-07-13T01:30:28;8.60;;;5.20;;
6523;SDS011;3295;38.928;-77.052;2023-07-13T01:32:56;8.95;;;5.35;;
6523;SDS011;3295;38.928;-77.052;2023-07-13T01:35:23;12.25;;;6.03;;
6523;SDS011;3295;38.928;-77.052;2023-07-13T01:37:52;9.30;;;5.53;;
6523;SDS011;3295;38.928;-77.052;2023-07-13T01:40:21;9.73;;;6.05;;
6523;SDS011;3295;38.928;-77.052;2023-07-13T01:42:48;9.05;;;5.28;;
6523;SDS011;3295;38.928;-77.052;2023-07-13T01:45:15;7.88;;;5.35;;
6523;SDS011;3295;38.928;-77.052;2023-07-13T01:47:42;8.63;;;5.35;;
6523;SDS011;3295;38.928;-77.052;2023-07-13T01:50:09;8.63;;;5.68;;
6523;SDS011;3295;38.928;-77.052;2023-07-13T01:52:37;11.38;;;5.75;;
6523;SDS011;3295;38.928;-77.052;2023-07-13T01:55:04;8.40;;;5.43;;
6523;SDS011;3295;38.928;-77.052;2023-07-13T01:57:33;8.88;;;5.57;;
6523;SDS011;3295;38.928;-77.052;2023-07-13T02:00:02;10.23;;;5.85;;
6523;SDS011;3295;38.928;-77.052;2023-07-13T02:02:30;8.65;;;5.68;;
6523;SDS011;3295;38.928;-77.052;2023-07-13T02:04:57;8.77;;;6.00;;
6523;SDS011;3295;38.928;-77.052;2023-07-13T02:07:24;8.95;;;5.80;;
6523;SDS011;3295;38.928;-77.052;2023-07-13T02:09:51;8.50;;;5.70;;
6523;SDS011;3295;38.928;-77.052;2023-07-13T02:12:19;8.35;;;5.53;;
6523;SDS011;3295;38.928;-77.052;2023-07-13T02:14:47;10.98;;;5.80;;
6523;SDS011;3295;38.928;-77.052;2023-07-13T02:17:15;9.07;;;5.53;;
6523;SDS011;3295;38.928;-77.052;2023-07-13T02:19:42;8.00;;;5.43;;
6523;SDS011;3295;38.928;-77.052;2023-07-13T02:22:09;10.43;;;5.70;;
6523;SDS011;3295;38.928;-77.052;2023-07-13T02:24:36;8.10;;;5.32;;
6523;SDS011;3295;38.928;-77.052;2023-07-13T02:27:04;7.47;;;5.28;;
6523;SDS011;3295;38.928;-77.052;2023-07-13T02:29:31;7.63;;;5.50;;
6523;SDS011;3295;38.928;-77.052;2023-07-13T02:32:00;8.45;;;5.40;;
6523;SDS011;3295;38.928;-77.052;2023-07-13T02:34:27;8.63;;;5.72;;
6523;SDS011;3295;38.928;-77.052;2023-07-13T02:36:54;7.75;;;5.45;;
6523;SDS011;3295;38.928;-77.052;2023-07-13T02:39:21;7.68;;;5.45;;
6523;SDS011;3295;38.928;-77.052;2023-07-13T02:41:48;8.50;;;5.93;;
6523;SDS011;3295;38.928;-77.052;2023-07-13T02:44:15;9.15;;;5.63;;
6523;SDS011;3295;38.928;-77.052;2023-07-13T02:46:42;9.15;;;6.00;;
6523;SDS011;3295;38.928;-77.052;2023-07-13T02:49:11;8.38;;;5.70;;
6523;SDS011;3295;38.928;-77.052;2023-07-13T02:51:38;7.55;;;5.60;;
6523;SDS011;3295;38.928;-77.052;2023-07-13T02:54:06;8.30;;;5.70;;
6523;SDS011;3295;38.928;-77.052;2023-07-13T02:56:33;9.68;;;5.78;;
6523;SDS011;3295;38.928;-77.052;2023-07-13T02:59:01;8.65;;;5.60;;
6523;SDS011;3295;38.928;-77.052;2023-07-13T03:01:28;9.23;;;5.78;;
6523;SDS011;3295;38.928;-77.052;2023-07-13T03:03:55;10.05;;;6.15;;
6523;SDS011;3295;38.928;-77.052;2023-07-13T03:06:24;9.40;;;6.30;;
6523;SDS011;3295;38.928;-77.052;2023-07-13T03:08:55;9.50;;;5.63;;
6523;SDS011;3295;38.928;-77.052;2023-07-13T03:11:22;9.02;;;5.80;;
6523;SDS011;3295;38.928;-77.052;2023-07-13T03:13:49;7.57;;;5.70;;
6523;SDS011;3295;38.928;-77.052;2023-07-13T03:16:16;10.85;;;5.70;;
6523;SDS011;3295;38.928;-77.052;2023-07-13T03:18:44;8.75;;;5.88;;
6523;SDS011;3295;38.928;-77.052;2023-07-13T03:21:13;8.95;;;5.75;;
6523;SDS011;3295;38.928;-77.052;2023-07-13T03:23:41;8.13;;;5.80;;
6523;SDS011;3295;38.928;-77.052;2023-07-13T03:26:09;8.65;;;5.85;;
6523;SDS011;3295;38.928;-77.052;2023-07-13T03:28:38;8.03;;;5.53;;
6523;SDS011;3295;38.928;-77.052;2023-07-13T03:31:06;8.70;;;5.80;;
6523;SDS011;3295;38.928;-77.052;2023-07-13T03:33:33;8.73;;;5.72;;
6523;SDS011;3295;38.928;-77.052;2023-07-13T03:36:00;9.23;;;6.03;;
6523;SDS011;3295;38.928;-77.052;2023-07-13T03:38:28;11.10;;;6.20;;
6523;SDS011;3295;38.928;-77.052;2023-07-13T03:40:56;9.45;;;5.82;;
6523;SDS011;3295;38.928;-77.052;2023-07-13T03:43:24;8.05;;;5.55;;
6523;SDS011;3295;38.928;-77.052;2023-07-13T03:45:51;7.50;;;5.57;;
6523;SDS011;3295;38.928;-77.052;2023-07-13T03:48:18;8.00;;;5.50;;
6523;SDS011;3295;38.928;-77.052;2023-07-13T03:50:46;8.15;;;5.45;;
6523;SDS011;3295;38.928;-77.052;2023-07-13T03:53:14;7.83;;;5.37;;
6523;SDS011;3295;38.928;-77.052;2023-07-13T03:55:41;8.73;;;6.03;;
6523;SDS011;3295;38.928;-77.052;2023-07-13T03:58:27;8.30;;;5.47;;
6523;SDS011;3295;38.928;-77.052;2023-07-13T04:00:55;9.23;;;5.70;;
6523;SDS011;3295;38.928;-77.052;2023-07-13T04:03:22;8.97;;;5.93;;
6523;SDS011;3295;38.928;-77.052;2023-07-13T04:05:49;9.70;;;5.73;;
6523;SDS011;3295;38.928;-77.052;2023-07-13T04:08:16;9.10;;;5.67;;
6523;SDS011;3295;38.928;-77.052;2023-07-13T04:10:44;8.57;;;5.83;;
6523;SDS011;3295;38.928;-77.052;2023-07-13T04:13:11;10.65;;;6.07;;
6523;SDS011;3295;38.928;-77.052;2023-07-13T04:15:39;10.63;;;6.30;;
6523;SDS011;3295;38.928;-77.052;2023-07-13T04:18:07;9.02;;;6.13;;
6523;SDS011;3295;38.928;-77.052;2023-07-13T04:20:34;7.80;;;5.55;;
6523;SDS011;3295;38.928;-77.052;2023-07-13T04:23:01;8.95;;;5.68;;
6523;SDS011;3295;38.928;-77.052;2023-07-13T04:25:28;10.82;;;6.07;;
6523;SDS011;3295;38.928;-77.052;2023-07-13T04:27:56;8.47;;;5.50;;
6523;SDS011;3295;38.928;-77.052;2023-07-13T04:30:23;8.30;;;5.63;;
6523;SDS011;3295;38.928;-77.052;2023-07-13T04:32:52;9.23;;;5.27;;
6523;SDS011;3295;38.928;-77.052;2023-07-13T04:35:19;8.30;;;5.67;;
6523;SDS011;3295;38.928;-77.052;2023-07-13T04:37:47;9.07;;;5.65;;
6523;SDS011;3295;38.928;-77.052;2023-07-13T04:40:15;8.07;;;5.90;;
6523;SDS011;3295;38.928;-77.052;2023-07-13T04:42:42;9.48;;;5.90;;
6523;SDS011;3295;38.928;-77.052;2023-07-13T04:45:10;8.75;;;5.80;;
6523;SDS011;3295;38.928;-77.052;2023-07-13T04:47:37;9.43;;;6.30;;
6523;SDS011;3295;38.928;-77.052;2023-07-13T04:50:06;8.77;;;5.20;;
6523;SDS011;3295;38.928;-77.052;2023-07-13T04:52:34;10.57;;;5.73;;
6523;SDS011;3295;38.928;-77.052;2023-07-13T04:55:01;9.27;;;5.50;;
6523;SDS011;3295;38.928;-77.052;2023-07-13T04:57:28;10.17;;;6.00;;
6523;SDS011;3295;38.928;-77.052;2023-07-13T04:59:55;9.97;;;6.47;;
6523;SDS011;3295;38.928;-77.052;2023-07-13T05:02:25;9.30;;;5.73;;
6523;SDS011;3295;38.928;-77.052;2023-07-13T05:04:53;10.27;;;6.03;;
6523;SDS011;3295;38.928;-77.052;2023-07-13T05:07:22;9.33;;;5.87;;
6523;SDS011;3295;38.928;-77.052;2023-07-13T05:09:49;8.30;;;5.70;;
6523;SDS011;3295;38.928;-77.052;2023-07-13T05:12:17;9.37;;;5.87;;
6523;SDS011;3295;38.928;-77.052;2023-07-13T05:14:44;10.07;;;5.90;;
6523;SDS011;3295;38.928;-77.052;2023-07-13T05:17:11;9.53;;;5.70;;
6523;SDS011;3295;38.928;-77.052;2023-07-13T05:19:38;8.50;;;5.60;;
6523;SDS011;3295;38.928;-77.052;2023-07-13T05:22:05;9.43;;;5.77;;
6523;SDS011;3295;38.928;-77.052;2023-07-13T05:24:34;7.90;;;5.70;;
6523;SDS011;3295;38.928;-77.052;2023-07-13T05:27:01;8.77;;;5.53;;
6523;SDS011;3295;38.928;-77.052;2023-07-13T05:29:29;10.37;;;6.07;;
6523;SDS011;3295;38.928;-77.052;2023-07-13T05:31:56;11.10;;;5.50;;
6523;SDS011;3295;38.928;-77.052;2023-07-13T05:34:23;8.83;;;5.80;;
6523;SDS011;3295;38.928;-77.052;2023-07-13T05:36:50;10.07;;;6.07;;
6523;SDS011;3295;38.928;-77.052;2023-07-13T05:39:17;12.60;;;6.03;;
6523;SDS011;3295;38.928;-77.052;2023-07-13T05:41:46;9.07;;;6.07;;
6523;SDS011;3295;38.928;-77.052;2023-07-13T05:44:13;8.93;;;5.60;;
6523;SDS011;3295;38.928;-77.052;2023-07-13T05:46:40;8.77;;;5.73;;
6523;SDS011;3295;38.928;-77.052;2023-07-13T05:49:07;9.77;;;5.97;;
6523;SDS011;3295;38.928;-77.052;2023-07-13T05:51:34;8.60;;;5.77;;
6523;SDS011;3295;38.928;-77.052;2023-07-13T05:54:01;9.30;;;5.70;;
6523;SDS011;3295;38.928;-77.052;2023-07-13T05:56:29;9.10;;;5.50;;
6523;SDS011;3295;38.928;-77.052;2023-07-13T05:58:57;9.33;;;5.43;;
6523;SDS011;3295;38.928;-77.052;2023-07-13T06:01:25;13.33;;;5.57;;
6523;SDS011;3295;38.928;-77.052;2023-07-13T06:03:52;9.57;;;5.43;;
6523;SDS011;3295;38.928;-77.052;2023-07-13T06:06:19;8.67;;;5.63;;
6523;SDS011;3295;38.928;-77.052;2023-07-13T06:08:46;8.40;;;5.30;;
6523;SDS011;3295;38.928;-77.052;2023-07-13T06:11:14;10.13;;;5.60;;
6523;SDS011;3295;38.928;-77.052;2023-07-13T06:13:41;9.30;;;5.50;;
6523;SDS011;3295;38.928;-77.052;2023-07-13T06:16:11;10.20;;;5.43;;
6523;SDS011;3295;38.928;-77.052;2023-07-13T06:18:39;7.63;;;4.90;;
6523;SDS011;3295;38.928;-77.052;2023-07-13T06:21:07;10.30;;;5.83;;
6523;SDS011;3295;38.928;-77.052;2023-07-13T06:23:35;9.03;;;5.70;;
6523;SDS011;3295;38.928;-77.052;2023-07-13T06:26:02;9.13;;;5.83;;
6523;SDS011;3295;38.928;-77.052;2023-07-13T06:28:29;9.40;;;5.20;;
6523;SDS011;3295;38.928;-77.052;2023-07-13T06:30:56;8.37;;;5.60;;
6523;SDS011;3295;38.928;-77.052;2023-07-13T06:33:25;8.77;;;5.43;;
6523;SDS011;3295;38.928;-77.052;2023-07-13T06:35:53;8.63;;;5.60;;
6523;SDS011;3295;38.928;-77.052;2023-07-13T06:38:21;8.40;;;5.50;;
6523;SDS011;3295;38.928;-77.052;2023-07-13T06:40:48;8.93;;;5.50;;
6523;SDS011;3295;38.928;-77.052;2023-07-13T06:43:15;11.03;;;5.77;;
6523;SDS011;3295;38.928;-77.052;2023-07-13T06:45:43;7.73;;;5.10;;
6523;SDS011;3295;38.928;-77.052;2023-07-13T06:48:14;8.37;;;5.77;;
6523;SDS011;3295;38.928;-77.052;2023-07-13T06:50:42;9.67;;;5.77;;
6523;SDS011;3295;38.928;-77.052;2023-07-13T06:53:10;7.57;;;5.33;;
6523;SDS011;3295;38.928;-77.052;2023-07-13T06:55:37;8.27;;;5.40;;
6523;SDS011;3295;38.928;-77.052;2023-07-13T06:58:04;9.10;;;5.50;;
6523;SDS011;3295;38.928;-77.052;2023-07-13T07:00:31;8.60;;;5.40;;
6523;SDS011;3295;38.928;-77.052;2023-07-13T07:02:58;9.23;;;5.60;;
6523;SDS011;3295;38.928;-77.052;2023-07-13T07:05:26;8.60;;;5.60;;
6523;SDS011;3295;38.928;-77.052;2023-07-13T07:07:54;8.77;;;5.40;;
6523;SDS011;3295;38.928;-77.052;2023-07-13T07:10:22;9.97;;;5.27;;
6523;SDS011;3295;38.928;-77.052;2023-07-13T07:12:49;8.53;;;5.77;;
6523;SDS011;3295;38.928;-77.052;2023-07-13T07:15:16;9.37;;;5.67;;
6523;SDS011;3295;38.928;-77.052;2023-07-13T07:17:44;9.97;;;5.50;;
6523;SDS011;3295;38.928;-77.052;2023-07-13T07:20:11;8.10;;;5.43;;
6523;SDS011;3295;38.928;-77.052;2023-07-13T07:22:39;8.73;;;5.73;;
6523;SDS011;3295;38.928;-77.052;2023-07-13T07:25:07;9.17;;;5.70;;
6523;SDS011;3295;38.928;-77.052;2023-07-13T07:27:35;10.47;;;5.70;;
6523;SDS011;3295;38.928;-77.052;2023-07-13T07:30:02;7.63;;;5.20;;
6523;SDS011;3295;38.928;-77.052;2023-07-13T07:32:29;9.30;;;5.50;;
6523;SDS011;3295;38.928;-77.052;2023-07-13T07:34:57;8.30;;;5.43;;
6523;SDS011;3295;38.928;-77.052;2023-07-13T07:37:24;8.20;;;5.40;;
6523;SDS011;3295;38.928;-77.052;2023-07-13T07:39:51;8.90;;;5.70;;
6523;SDS011;3295;38.928;-77.052;2023-07-13T07:42:20;10.33;;;5.77;;
6523;SDS011;3295;38.928;-77.052;2023-07-13T07:44:47;8.23;;;5.67;;
6523;SDS011;3295;38.928;-77.052;2023-07-13T07:47:14;11.13;;;5.60;;
6523;SDS011;3295;38.928;-77.052;2023-07-13T07:49:41;8.00;;;5.60;;
6523;SDS011;3295;38.928;-77.052;2023-07-13T07:52:09;8.83;;;5.40;;
6523;SDS011;3295;38.928;-77.052;2023-07-13T07:54:36;8.13;;;5.97;;
6523;SDS011;3295;38.928;-77.052;2023-07-13T07:57:03;9.60;;;6.00;;
6523;SDS011;3295;38.928;-77.052;2023-07-13T07:59:32;8.00;;;5.10;;
6523;SDS011;3295;38.928;-77.052;2023-07-13T08:01:59;10.13;;;6.00;;
6523;SDS011;3295;38.928;-77.052;2023-07-13T08:04:28;10.97;;;5.70;;
6523;SDS011;3295;38.928;-77.052;2023-07-13T08:06:55;9.27;;;5.80;;
6523;SDS011;3295;38.928;-77.052;2023-07-13T08:09:22;8.47;;;5.30;;
6523;SDS011;3295;38.928;-77.052;2023-07-13T08:11:50;9.60;;;5.80;;
6523;SDS011;3295;38.928;-77.052;2023-07-13T08:14:18;10.37;;;5.50;;
6523;SDS011;3295;38.928;-77.052;2023-07-13T08:16:46;7.97;;;5.53;;
6523;SDS011;3295;38.928;-77.052;2023-07-13T08:19:13;9.70;;;5.53;;
6523;SDS011;3295;38.928;-77.052;2023-07-13T08:21:40;8.60;;;5.63;;
6523;SDS011;3295;38.928;-77.052;2023-07-13T08:24:08;11.03;;;5.73;;
6523;SDS011;3295;38.928;-77.052;2023-07-13T08:26:36;7.97;;;5.27;;
6523;SDS011;3295;38.928;-77.052;2023-07-13T08:29:03;9.63;;;5.57;;
6523;SDS011;3295;38.928;-77.052;2023-07-13T08:31:30;7.63;;;5.43;;
6523;SDS011;3295;38.928;-77.052;2023-07-13T08:33:59;7.90;;;4.97;;
6523;SDS011;3295;38.928;-77.052;2023-07-13T08:36:26;9.97;;;5.23;;
6523;SDS011;3295;38.928;-77.052;2023-07-13T08:38:53;8.83;;;5.40;;
6523;SDS011;3295;38.928;-77.052;2023-07-13T08:41:21;8.20;;;5.43;;
6523;SDS011;3295;38.928;-77.052;2023-07-13T08:43:49;8.20;;;5.53;;
6523;SDS011;3295;38.928;-77.052;2023-07-13T08:46:18;10.27;;;6.13;;
6523;SDS011;3295;38.928;-77.052;2023-07-13T08:48:46;8.20;;;5.93;;
6523;SDS011;3295;38.928;-77.052;2023-07-13T08:51:20;9.70;;;6.07;;
6523;SDS011;3295;38.928;-77.052;2023-07-13T08:53:51;10.40;;;6.10;;
6523;SDS011;3295;38.928;-77.052;2023-07-13T08:56:22;9.70;;;5.80;;
6523;SDS011;3295;38.928;-77.052;2023-07-13T08:58:49;8.90;;;5.43;;
6523;SDS011;3295;38.928;-77.052;2023-07-13T09:01:21;10.77;;;5.93;;
6523;SDS011;3295;38.928;-77.052;2023-07-13T09:03:51;9.10;;;5.40;;
6523;SDS011;3295;38.928;-77.052;2023-07-13T09:06:23;12.67;;;5.40;;
6523;SDS011;3295;38.928;-77.052;2023-07-13T09:08:55;10.67;;;5.70;;
6523;SDS011;3295;38.928;-77.052;2023-07-13T09:11:28;9.43;;;5.87;;
6523;SDS011;3295;38.928;-77.052;2023-07-13T09:14:00;8.73;;;5.30;;
6523;SDS011;3295;38.928;-77.052;2023-07-13T09:16:30;8.97;;;5.57;;
6523;SDS011;3295;38.928;-77.052;2023-07-13T09:18:59;10.03;;;5.80;;
6523;SDS011;3295;38.928;-77.052;2023-07-13T09:21:29;11.97;;;5.83;;
6523;SDS011;3295;38.928;-77.052;2023-07-13T09:23:59;9.70;;;5.80;;
6523;SDS011;3295;38.928;-77.052;2023-07-13T09:26:27;9.53;;;5.80;;
6523;SDS011;3295;38.928;-77.052;2023-07-13T09:28:57;9.57;;;5.33;;
6523;SDS011;3295;38.928;-77.052;2023-07-13T09:31:26;9.07;;;5.67;;
6523;SDS011;3295;38.928;-77.052;2023-07-13T09:33:56;9.17;;;5.43;;
6523;SDS011;3295;38.928;-77.052;2023-07-13T09:36:24;9.63;;;6.00;;
6523;SDS011;3295;38.928;-77.052;2023-07-13T09:38:57;11.87;;;5.80;;
6523;SDS011;3295;38.928;-77.052;2023-07-13T09:41:27;10.00;;;5.87;;
6523;SDS011;3295;38.928;-77.052;2023-07-13T09:44:09;9.77;;;5.80;;
6523;SDS011;3295;38.928;-77.052;2023-07-13T09:46:37;9.17;;;6.07;;
6523;SDS011;3295;38.928;-77.052;2023-07-13T09:49:04;8.83;;;5.60;;
6523;SDS011;3295;38.928;-77.052;2023-07-13T09:51:31;8.30;;;5.47;;
6523;SDS011;3295;38.928;-77.052;2023-07-13T09:54:00;12.47;;;6.37;;
6523;SDS011;3295;38.928;-77.052;2023-07-13T09:56:28;13.83;;;6.30;;
6523;SDS011;3295;38.928;-77.052;2023-07-13T09:58:56;11.80;;;6.13;;
6523;SDS011;3295;38.928;-77.052;2023-07-13T10:04:11;10.17;;;6.13;;
6523;SDS011;3295;38.928;-77.052;2023-07-13T10:06:39;10.50;;;5.97;;
6523;SDS011;3295;38.928;-77.052;2023-07-13T10:09:09;9.40;;;5.80;;
6523;SDS011;3295;38.928;-77.052;2023-07-13T10:11:39;8.77;;;5.70;;
6523;SDS011;3295;38.928;-77.052;2023-07-13T10:14:10;10.07;;;6.10;;
6523;SDS011;3295;38.928;-77.052;2023-07-13T10:16:38;9.23;;;5.90;;
6523;SDS011;3295;38.928;-77.052;2023-07-13T10:19:06;9.13;;;5.87;;
6523;SDS011;3295;38.928;-77.052;2023-07-13T10:21:35;9.07;;;5.33;;
6523;SDS011;3295;38.928;-77.052;2023-07-13T10:24:05;10.30;;;6.30;;
6523;SDS011;3295;38.928;-77.052;2023-07-13T10:26:35;9.77;;;6.30;;
6523;SDS011;3295;38.928;-77.052;2023-07-13T10:29:04;9.80;;;5.87;;
6523;SDS011;3295;38.928;-77.052;2023-07-13T10:31:33;11.27;;;6.00;;
6523;SDS011;3295;38.928;-77.052;2023-07-13T10:34:01;9.70;;;6.20;;
6523;SDS011;3295;38.928;-77.052;2023-07-13T10:36:33;10.60;;;6.07;;
6523;SDS011;3295;38.928;-77.052;2023-07-13T10:39:01;9.13;;;6.00;;
6523;SDS011;3295;38.928;-77.052;2023-07-13T10:41:29;10.50;;;6.13;;
6523;SDS011;3295;38.928;-77.052;2023-07-13T10:43:59;9.60;;;6.40;;
6523;SDS011;3295;38.928;-77.052;2023-07-13T10:46:28;10.17;;;6.27;;
6523;SDS011;3295;38.928;-77.052;2023-07-13T10:48:57;10.43;;;6.40;;
6523;SDS011;3295;38.928;-77.052;2023-07-13T10:51:25;10.20;;;6.03;;
6523;SDS011;3295;38.928;-77.052;2023-07-13T10:56:40;15.80;;;6.83;;
6523;SDS011;3295;38.928;-77.052;2023-07-13T10:59:12;12.07;;;6.87;;
6523;SDS011;3295;38.928;-77.052;2023-07-13T11:01:46;14.23;;;7.07;;
6523;SDS011;3295;38.928;-77.052;2023-07-13T11:04:15;10.93;;;6.60;;
6523;SDS011;3295;38.928;-77.052;2023-07-13T11:06:43;10.60;;;6.57;;
6523;SDS011;3295;38.928;-77.052;2023-07-13T11:09:18;11.67;;;6.83;;
6523;SDS011;3295;38.928;-77.052;2023-07-13T11:11:45;10.70;;;6.40;;
6523;SDS011;3295;38.928;-77.052;2023-07-13T11:14:34;10.77;;;6.77;;
6523;SDS011;3295;38.928;-77.052;2023-07-13T11:19:51;11.13;;;7.13;;
6523;SDS011;3295;38.928;-77.052;2023-07-13T11:22:23;11.40;;;6.57;;
6523;SDS011;3295;38.928;-77.052;2023-07-13T11:24:52;10.67;;;6.97;;
6523;SDS011;3295;38.928;-77.052;2023-07-13T11:27:22;14.33;;;7.37;;
6523;SDS011;3295;38.928;-77.052;2023-07-13T11:29:51;15.73;;;7.53;;
6523;SDS011;3295;38.928;-77.052;2023-07-13T11:32:22;13.50;;;7.53;;
6523;SDS011;3295;38.928;-77.052;2023-07-13T11:34:52;12.57;;;7.50;;
6523;SDS011;3295;38.928;-77.052;2023-07-13T11:37:20;12.87;;;7.10;;
6523;SDS011;3295;38.928;-77.052;2023-07-13T11:39:48;11.47;;;6.80;;
6523;SDS011;3295;38.928;-77.052;2023-07-13T11:42:18;11.93;;;7.23;;
6523;SDS011;3295;38.928;-77.052;2023-07-13T11:44:48;9.40;;;6.50;;
6523;SDS011;3295;38.928;-77.052;2023-07-13T11:47:19;11.80;;;7.17;;
6523;SDS011;3295;38.928;-77.052;2023-07-13T11:49:48;12.03;;;7.03;;
6523;SDS011;3295;38.928;-77.052;2023-07-13T11:52:17;11.97;;;7.07;;
6523;SDS011;3295;38.928;-77.052;2023-07-13T11:54:46;10.20;;;7.00;;
6523;SDS011;3295;38.928;-77.052;2023-07-13T11:57:19;13.47;;;7.20;;
6523;SDS011;3295;38.928;-77.052;2023-07-13T11:59:50;9.57;;;6.53;;
6523;SDS011;3295;38.928;-77.052;2023-07-13T12:02:26;11.70;;;7.50;;
6523;SDS011;3295;38.928;-77.052;2023-07-13T12:04:54;12.30;;;7.37;;
6523;SDS011;3295;38.928;-77.052;2023-07-13T12:07:22;13.53;;;7.40;;
6523;SDS011;3295;38.928;-77.052;2023-07-13T12:09:49;12.37;;;7.43;;
6523;SDS011;3295;38.928;-77.052;2023-07-13T12:12:18;12.53;;;7.37;;
6523;SDS011;3295;38.928;-77.052;2023-07-13T12:14:45;13.07;;;7.37;;
6523;SDS011;3295;38.928;-77.052;2023-07-13T12:17:20;13.47;;;7.03;;
6523;SDS011;3295;38.928;-77.052;2023-07-13T12:19:49;11.77;;;7.13;;
6523;SDS011;3295;38.928;-77.052;2023-07-13T12:22:17;13.60;;;7.77;;
6523;SDS011;3295;38.928;-77.052;2023-07-13T12:24:45;13.17;;;7.10;;
6523;SDS011;3295;38.928;-77.052;2023-07-13T12:27:20;13.33;;;7.40;;
6523;SDS011;3295;38.928;-77.052;2023-07-13T12:29:51;11.77;;;6.67;;
6523;SDS011;3295;38.928;-77.052;2023-07-13T12:32:19;13.47;;;7.03;;
6523;SDS011;3295;38.928;-77.052;2023-07-13T12:34:53;13.63;;;7.40;;
6523;SDS011;3295;38.928;-77.052;2023-07-13T12:37:21;11.90;;;7.53;;
6523;SDS011;3295;38.928;-77.052;2023-07-13T12:39:49;12.77;;;7.63;;
6523;SDS011;3295;38.928;-77.052;2023-07-13T12:42:19;13.30;;;7.77;;
6523;SDS011;3295;38.928;-77.052;2023-07-13T12:44:49;12.07;;;7.03;;
6523;SDS011;3295;38.928;-77.052;2023-07-13T12:47:19;12.73;;;6.97;;
6523;SDS011;3295;38.928;-77.052;2023-07-13T12:49:48;13.03;;;7.23;;
6523;SDS011;3295;38.928;-77.052;2023-07-13T12:52:17;12.93;;;7.43;;
6523;SDS011;3295;38.928;-77.052;2023-07-13T12:54:53;11.73;;;7.30;;
6523;SDS011;3295;38.928;-77.052;2023-07-13T12:57:22;11.30;;;7.37;;
6523;SDS011;3295;38.928;-77.052;2023-07-13T12:59:51;13.03;;;6.90;;
6523;SDS011;3295;38.928;-77.052;2023-07-13T13:02:22;12.70;;;7.70;;
6523;SDS011;3295;38.928;-77.052;2023-07-13T13:04:52;10.10;;;6.30;;
6523;SDS011;3295;38.928;-77.052;2023-07-13T13:07:22;10.67;;;6.70;;
6523;SDS011;3295;38.928;-77.052;2023-07-13T13:09:49;9.10;;;5.97;;
6523;SDS011;3295;38.928;-77.052;2023-07-13T13:12:16;12.53;;;6.60;;
6523;SDS011;3295;38.928;-77.052;2023-07-13T13:14:43;12.97;;;6.70;;
6523;SDS011;3295;38.928;-77.052;2023-07-13T13:17:15;12.67;;;6.40;;
6523;SDS011;3295;38.928;-77.052;2023-07-13T13:19:44;11.77;;;6.17;;
6523;SDS011;3295;38.928;-77.052;2023-07-13T13:22:12;11.10;;;6.67;;
6523;SDS011;3295;38.928;-77.052;2023-07-13T13:24:40;10.87;;;6.93;;
6523;SDS011;3295;38.928;-77.052;2023-07-13T13:27:10;10.77;;;6.47;;
6523;SDS011;3295;38.928;-77.052;2023-07-13T13:29:40;11.43;;;6.17;;
6523;SDS011;3295;38.928;-77.052;2023-07-13T13:32:09;10.83;;;6.20;;
6523;SDS011;3295;38.928;-77.052;2023-07-13T13:34:37;10.27;;;6.60;;
6523;SDS011;3295;38.928;-77.052;2023-07-13T13:37:04;11.33;;;6.30;;
6523;SDS011;3295;38.928;-77.052;2023-07-13T13:39:38;9.47;;;6.20;;
6523;SDS011;3295;38.928;-77.052;2023-07-13T13:42:08;9.10;;;6.00;;
6523;SDS011;3295;38.928;-77.052;2023-07-13T13:44:36;9.93;;;6.23;;
6523;SDS011;3295;38.928;-77.052;2023-07-13T13:47:03;10.57;;;6.27;;
6523;SDS011;3295;38.928;-77.052;2023-07-13T13:49:30;11.93;;;6.53;;
6523;SDS011;3295;38.928;-77.052;2023-07-13T13:51:58;11.07;;;6.20;;
6523;SDS011;3295;38.928;-77.052;2023-07-13T13:54:25;10.13;;;5.80;;
6523;SDS011;3295;38.928;-77.052;2023-07-13T13:56:52;11.75;;;7.10;;
6523;SDS011;3295;38.928;-77.052;2023-07-13T13:59:21;10.13;;;6.40;;
6523;SDS011;3295;38.928;-77.052;2023-07-13T14:01:48;10.45;;;6.35;;
6523;SDS011;3295;38.928;-77.052;2023-07-13T14:04:16;11.73;;;6.30;;
6523;SDS011;3295;38.928;-77.052;2023-07-13T14:06:44;10.32;;;6.00;;
6523;SDS011;3295;38.928;-77.052;2023-07-13T14:09:13;10.85;;;6.30;;
6523;SDS011;3295;38.928;-77.052;2023-07-13T14:11:40;10.30;;;6.22;;
6523;SDS011;3295;38.928;-77.052;2023-07-13T14:14:09;12.80;;;6.50;;
6523;SDS011;3295;38.928;-77.052;2023-07-13T14:16:40;10.73;;;5.90;;
6523;SDS011;3295;38.928;-77.052;2023-07-13T14:19:08;9.10;;;5.90;;
6523;SDS011;3295;38.928;-77.052;2023-07-13T14:21:37;9.70;;;6.05;;
6523;SDS011;3295;38.928;-77.052;2023-07-13T14:24:04;10.18;;;6.18;;
6523;SDS011;3295;38.928;-77.052;2023-07-13T14:26:32;9.13;;;6.15;;
6523;SDS011;3295;38.928;-77.052;2023-07-13T14:29:04;9.88;;;6.10;;
6523;SDS011;3295;38.928;-77.052;2023-07-13T14:31:31;10.00;;;6.00;;
6523;SDS011;3295;38.928;-77.052;2023-07-13T14:34:00;10.27;;;6.60;;
6523;SDS011;3295;38.928;-77.052;2023-07-13T14:36:29;9.55;;;5.97;;
6523;SDS011;3295;38.928;-77.052;2023-07-13T14:38:57;10.75;;;6.05;;
6523;SDS011;3295;38.928;-77.052;2023-07-13T14:41:24;8.70;;;5.65;;
6523;SDS011;3295;38.928;-77.052;2023-07-13T14:43:51;8.25;;;5.88;;
6523;SDS011;3295;38.928;-77.052;2023-07-13T14:46:23;8.55;;;5.43;;
6523;SDS011;3295;38.928;-77.052;2023-07-13T14:48:51;7.80;;;4.85;;
6523;SDS011;3295;38.928;-77.052;2023-07-13T14:51:20;8.77;;;5.43;;
6523;SDS011;3295;38.928;-77.052;2023-07-13T14:53:47;7.82;;;5.38;;
6523;SDS011;3295;38.928;-77.052;2023-07-13T14:56:14;8.52;;;5.43;;
6523;SDS011;3295;38.928;-77.052;2023-07-13T14:58:42;8.30;;;5.28;;
6523;SDS011;3295;38.928;-77.052;2023-07-13T15:01:11;7.95;;;4.85;;